sensor_id;sensor_type;location;lat;lon;timestamp;P1;durP1;ratioP1;P2;durP2;ratioP2
77304;SDS011;66364;52.622;7.746;2023-03-01T00:01:31;5.63;;;5.00;;
77304;SDS011;66364;52.622;7.746;2023-03-01T00:03:35;7.75;;;6.45;;
77304;SDS011;66364;52.622;7.746;2023-03-01T00:05:43;10.23;;;6.33;;
77304;SDS011;66364;52.622;7.746;2023-03-01T00:07:44;7.08;;;6.40;;
77304;SDS011;66364;52.622;7.746;2023-03-01T00:09:45;9.77;;;6.63;;
77304;SDS011;66364;52.622;7.746;2023-03-01T00:11:46;12.60;;;8.80;;
77304;SDS011;66364;52.622;7.746;2023-03-01T00:15:54;21.33;;;12.85;;
77304;SDS011;66364;52.622;7.746;2023-03-01T00:17:54;21.43;;;14.20;;
77304;SDS011;66364;52.622;7.746;2023-03-01T00:19:55;30.83;;;16.17;;
77304;SDS011;66364;52.622;7.746;2023-03-01T00:21:58;26.17;;;13.70;;
77304;SDS011;66364;52.622;7.746;2023-03-01T00:23:58;20.12;;;11.50;;
77304;SDS011;66364;52.622;7.746;2023-03-01T00:26:15;26.07;;;13.43;;
77304;SDS011;66364;52.622;7.746;2023-03-01T00:28:17;20.20;;;11.97;;
77304;SDS011;66364;52.622;7.746;2023-03-01T00:30:19;19.50;;;10.85;;
77304;SDS011;66364;52.622;7.746;2023-03-01T00:32:20;12.83;;;9.30;;
77304;SDS011;66364;52.622;7.746;2023-03-01T00:34:20;15.20;;;10.30;;
77304;SDS011;66364;52.622;7.746;2023-03-01T00:36:21;17.87;;;9.63;;
77304;SDS011;66364;52.622;7.746;2023-03-01T00:38:22;23.00;;;11.80;;
77304;SDS011;66364;52.622;7.746;2023-03-01T00:40:27;30.00;;;13.40;;
77304;SDS011;66364;52.622;7.746;2023-03-01T00:42:26;18.75;;;10.30;;
77304;SDS011;66364;52.622;7.746;2023-03-01T00:44:26;21.80;;;10.57;;
77304;SDS011;66364;52.622;7.746;2023-03-01T00:46:37;16.03;;;9.10;;
77304;SDS011;66364;52.622;7.746;2023-03-01T00:48:38;17.30;;;9.28;;
77304;SDS011;66364;52.622;7.746;2023-03-01T00:50:39;16.17;;;9.00;;
77304;SDS011;66364;52.622;7.746;2023-03-01T00:52:39;14.53;;;8.80;;
77304;SDS011;66364;52.622;7.746;2023-03-01T00:54:40;12.13;;;8.00;;
77304;SDS011;66364;52.622;7.746;2023-03-01T00:56:41;34.07;;;14.57;;
77304;SDS011;66364;52.622;7.746;2023-03-01T00:58:41;33.27;;;17.17;;
77304;SDS011;66364;52.622;7.746;2023-03-01T01:00:42;43.63;;;18.40;;
77304;SDS011;66364;52.622;7.746;2023-03-01T01:02:43;50.67;;;19.77;;
77304;SDS011;66364;52.622;7.746;2023-03-01T01:04:44;54.43;;;21.93;;
77304;SDS011;66364;52.622;7.746;2023-03-01T01:06:46;55.23;;;21.52;;
77304;SDS011;66364;52.622;7.746;2023-03-01T01:08:47;34.23;;;14.10;;
77304;SDS011;66364;52.622;7.746;2023-03-01T01:10:49;33.78;;;12.47;;
77304;SDS011;66364;52.622;7.746;2023-03-01T01:12:50;29.93;;;11.17;;
77304;SDS011;66364;52.622;7.746;2023-03-01T01:14:50;17.37;;;9.60;;
77304;SDS011;66364;52.622;7.746;2023-03-01T01:16:51;19.60;;;8.90;;
77304;SDS011;66364;52.622;7.746;2023-03-01T01:18:52;11.40;;;7.60;;
77304;SDS011;66364;52.622;7.746;2023-03-01T01:20:53;17.67;;;9.63;;
77304;SDS011;66364;52.622;7.746;2023-03-01T01:22:54;14.23;;;9.93;;
77304;SDS011;66364;52.622;7.746;2023-03-01T01:24:54;17.77;;;9.07;;
77304;SDS011;66364;52.622;7.746;2023-03-01T01:26:55;9.23;;;7.78;;
77304;SDS011;66364;52.622;7.746;2023-03-01T01:28:56;16.07;;;8.73;;
77304;SDS011;66364;52.622;7.746;2023-03-01T01:30:57;13.48;;;7.58;;
77304;SDS011;66364;52.622;7.746;2023-03-01T01:32:58;11.77;;;7.87;;
77304;SDS011;66364;52.622;7.746;2023-03-01T01:34:59;13.37;;;8.10;;
77304;SDS011;66364;52.622;7.746;2023-03-01T01:36:59;9.63;;;7.90;;
77304;SDS011;66364;52.622;7.746;2023-03-01T01:39:00;10.10;;;6.63;;
77304;SDS011;66364;52.622;7.746;2023-03-01T01:41:01;13.88;;;8.03;;
77304;SDS011;66364;52.622;7.746;2023-03-01T01:43:04;17.43;;;10.03;;
77304;SDS011;66364;52.622;7.746;2023-03-01T01:49:44;29.35;;;14.95;;
77304;SDS011;66364;52.622;7.746;2023-03-01T01:51:47;30.17;;;14.98;;
77304;SDS011;66364;52.622;7.746;2023-03-01T01:53:51;25.20;;;15.05;;
77304;SDS011;66364;52.622;7.746;2023-03-01T01:55:55;23.45;;;13.98;;
77304;SDS011;66364;52.622;7.746;2023-03-01T01:57:59;17.60;;;10.75;;
77304;SDS011;66364;52.622;7.746;2023-03-01T02:00:11;25.82;;;11.85;;
77304;SDS011;66364;52.622;7.746;2023-03-01T02:02:31;19.45;;;11.65;;
77304;SDS011;66364;52.622;7.746;2023-03-01T02:06:57;17.87;;;10.32;;
77304;SDS011;66364;52.622;7.746;2023-03-01T02:09:17;12.47;;;8.90;;
77304;SDS011;66364;52.622;7.746;2023-03-01T02:13:40;12.10;;;8.30;;
77304;SDS011;66364;52.622;7.746;2023-03-01T02:15:51;7.83;;;7.12;;
77304;SDS011;66364;52.622;7.746;2023-03-01T02:17:52;9.38;;;8.08;;
77304;SDS011;66364;52.622;7.746;2023-03-01T02:22:37;13.25;;;7.40;;
77304;SDS011;66364;52.622;7.746;2023-03-01T02:26:53;10.28;;;9.18;;
77304;SDS011;66364;52.622;7.746;2023-03-01T02:28:56;8.68;;;7.87;;
77304;SDS011;66364;52.622;7.746;2023-03-01T02:30:57;8.75;;;7.58;;
77304;SDS011;66364;52.622;7.746;2023-03-01T02:32:58;9.53;;;8.43;;
77304;SDS011;66364;52.622;7.746;2023-03-01T02:35:01;8.93;;;7.70;;
77304;SDS011;66364;52.622;7.746;2023-03-01T02:37:04;9.45;;;8.55;;
77304;SDS011;66364;52.622;7.746;2023-03-01T02:39:36;11.10;;;9.95;;
77304;SDS011;66364;52.622;7.746;2023-03-01T02:41:44;10.63;;;9.53;;
77304;SDS011;66364;52.622;7.746;2023-03-01T02:43:49;12.68;;;9.58;;
77304;SDS011;66364;52.622;7.746;2023-03-01T02:45:52;13.00;;;10.30;;
77304;SDS011;66364;52.622;7.746;2023-03-01T02:47:54;12.50;;;10.63;;
77304;SDS011;66364;52.622;7.746;2023-03-01T02:49:55;11.00;;;9.83;;
77304;SDS011;66364;52.622;7.746;2023-03-01T02:56:28;13.40;;;10.75;;
77304;SDS011;66364;52.622;7.746;2023-03-01T02:58:30;9.10;;;8.20;;
77304;SDS011;66364;52.622;7.746;2023-03-01T03:00:33;13.03;;;9.47;;
77304;SDS011;66364;52.622;7.746;2023-03-01T03:02:36;13.28;;;11.48;;
77304;SDS011;66364;52.622;7.746;2023-03-01T03:04:36;12.90;;;10.38;;
77304;SDS011;66364;52.622;7.746;2023-03-01T03:06:47;11.77;;;9.23;;
77304;SDS011;66364;52.622;7.746;2023-03-01T03:08:49;11.83;;;9.70;;
77304;SDS011;66364;52.622;7.746;2023-03-01T03:10:50;11.57;;;10.47;;
77304;SDS011;66364;52.622;7.746;2023-03-01T03:12:52;10.50;;;9.40;;
77304;SDS011;66364;52.622;7.746;2023-03-01T03:14:56;11.50;;;10.45;;
77304;SDS011;66364;52.622;7.746;2023-03-01T03:17:03;12.07;;;10.78;;
77304;SDS011;66364;52.622;7.746;2023-03-01T03:19:04;11.78;;;10.32;;
77304;SDS011;66364;52.622;7.746;2023-03-01T03:21:08;14.73;;;12.10;;
77304;SDS011;66364;52.622;7.746;2023-03-01T03:23:09;12.68;;;10.00;;
77304;SDS011;66364;52.622;7.746;2023-03-01T03:25:10;13.80;;;11.00;;
77304;SDS011;66364;52.622;7.746;2023-03-01T03:27:11;14.40;;;9.77;;
77304;SDS011;66364;52.622;7.746;2023-03-01T03:29:11;14.73;;;10.40;;
77304;SDS011;66364;52.622;7.746;2023-03-01T03:31:19;18.60;;;10.40;;
77304;SDS011;66364;52.622;7.746;2023-03-01T03:33:20;13.60;;;10.32;;
77304;SDS011;66364;52.622;7.746;2023-03-01T03:35:22;12.70;;;10.87;;
77304;SDS011;66364;52.622;7.746;2023-03-01T03:37:25;13.28;;;9.93;;
77304;SDS011;66364;52.622;7.746;2023-03-01T03:39:37;10.50;;;8.80;;
77304;SDS011;66364;52.622;7.746;2023-03-01T03:43:43;10.88;;;9.10;;
77304;SDS011;66364;52.622;7.746;2023-03-01T03:45:45;10.30;;;9.30;;
77304;SDS011;66364;52.622;7.746;2023-03-01T03:47:47;13.58;;;9.65;;
77304;SDS011;66364;52.622;7.746;2023-03-01T03:49:55;9.63;;;8.83;;
77304;SDS011;66364;52.622;7.746;2023-03-01T03:51:56;11.97;;;9.33;;
77304;SDS011;66364;52.622;7.746;2023-03-01T03:53:56;9.77;;;8.53;;
77304;SDS011;66364;52.622;7.746;2023-03-01T03:55:57;10.53;;;8.90;;
77304;SDS011;66364;52.622;7.746;2023-03-01T04:00:20;9.43;;;8.50;;
77304;SDS011;66364;52.622;7.746;2023-03-01T04:02:22;9.33;;;8.48;;
77304;SDS011;66364;52.622;7.746;2023-03-01T04:04:23;9.77;;;8.83;;
77304;SDS011;66364;52.622;7.746;2023-03-01T04:06:23;9.93;;;8.80;;
77304;SDS011;66364;52.622;7.746;2023-03-01T04:08:24;14.30;;;12.00;;
77304;SDS011;66364;52.622;7.746;2023-03-01T04:10:24;14.03;;;11.10;;
77304;SDS011;66364;52.622;7.746;2023-03-01T04:12:41;21.13;;;14.07;;
77304;SDS011;66364;52.622;7.746;2023-03-01T04:14:41;22.27;;;13.50;;
77304;SDS011;66364;52.622;7.746;2023-03-01T04:16:48;22.17;;;12.80;;
77304;SDS011;66364;52.622;7.746;2023-03-01T04:18:49;21.10;;;13.20;;
77304;SDS011;66364;52.622;7.746;2023-03-01T04:20:50;26.27;;;14.10;;
77304;SDS011;66364;52.622;7.746;2023-03-01T04:23:05;27.48;;;14.98;;
77304;SDS011;66364;52.622;7.746;2023-03-01T04:25:25;19.20;;;13.72;;
77304;SDS011;66364;52.622;7.746;2023-03-01T04:27:26;26.57;;;16.13;;
77304;SDS011;66364;52.622;7.746;2023-03-01T04:29:27;23.20;;;13.67;;
77304;SDS011;66364;52.622;7.746;2023-03-01T04:31:28;33.80;;;19.40;;
77304;SDS011;66364;52.622;7.746;2023-03-01T04:33:28;45.77;;;19.90;;
77304;SDS011;66364;52.622;7.746;2023-03-01T04:35:29;47.63;;;21.30;;
77304;SDS011;66364;52.622;7.746;2023-03-01T04:37:31;37.60;;;19.35;;
77304;SDS011;66364;52.622;7.746;2023-03-01T04:39:31;27.33;;;16.27;;
77304;SDS011;66364;52.622;7.746;2023-03-01T04:41:32;26.03;;;13.90;;
77304;SDS011;66364;52.622;7.746;2023-03-01T04:43:33;36.07;;;16.47;;
77304;SDS011;66364;52.622;7.746;2023-03-01T04:45:36;34.58;;;17.48;;
77304;SDS011;66364;52.622;7.746;2023-03-01T04:47:37;33.63;;;18.10;;
77304;SDS011;66364;52.622;7.746;2023-03-01T04:49:44;41.87;;;19.77;;
77304;SDS011;66364;52.622;7.746;2023-03-01T04:51:44;37.20;;;18.45;;
77304;SDS011;66364;52.622;7.746;2023-03-01T04:53:45;41.17;;;16.93;;
77304;SDS011;66364;52.622;7.746;2023-03-01T04:55:46;26.93;;;16.52;;
77304;SDS011;66364;52.622;7.746;2023-03-01T04:57:46;37.60;;;16.23;;
77304;SDS011;66364;52.622;7.746;2023-03-01T04:59:59;29.30;;;15.30;;
77304;SDS011;66364;52.622;7.746;2023-03-01T05:02:00;21.52;;;12.98;;
77304;SDS011;66364;52.622;7.746;2023-03-01T05:04:10;16.30;;;10.43;;
77304;SDS011;66364;52.622;7.746;2023-03-01T05:06:11;15.48;;;11.03;;
77304;SDS011;66364;52.622;7.746;2023-03-01T05:08:12;12.20;;;9.70;;
77304;SDS011;66364;52.622;7.746;2023-03-01T05:10:17;10.08;;;9.08;;
77304;SDS011;66364;52.622;7.746;2023-03-01T05:12:23;9.77;;;8.57;;
77304;SDS011;66364;52.622;7.746;2023-03-01T05:14:30;12.75;;;9.83;;
77304;SDS011;66364;52.622;7.746;2023-03-01T05:16:37;10.80;;;9.90;;
77304;SDS011;66364;52.622;7.746;2023-03-01T05:18:39;11.18;;;10.00;;
77304;SDS011;66364;52.622;7.746;2023-03-01T05:20:40;13.58;;;10.25;;
77304;SDS011;66364;52.622;7.746;2023-03-01T05:22:41;10.83;;;9.50;;
77304;SDS011;66364;52.622;7.746;2023-03-01T05:24:42;11.10;;;10.00;;
77304;SDS011;66364;52.622;7.746;2023-03-01T05:26:42;11.50;;;9.70;;
77304;SDS011;66364;52.622;7.746;2023-03-01T05:28:43;11.73;;;9.03;;
77304;SDS011;66364;52.622;7.746;2023-03-01T05:30:45;10.15;;;9.15;;
77304;SDS011;66364;52.622;7.746;2023-03-01T05:32:47;9.95;;;8.95;;
77304;SDS011;66364;52.622;7.746;2023-03-01T05:34:49;9.10;;;8.30;;
77304;SDS011;66364;52.622;7.746;2023-03-01T05:36:50;8.90;;;8.03;;
77304;SDS011;66364;52.622;7.746;2023-03-01T05:38:52;11.12;;;8.83;;
77304;SDS011;66364;52.622;7.746;2023-03-01T05:40:58;10.87;;;8.77;;
77304;SDS011;66364;52.622;7.746;2023-03-01T05:42:59;8.95;;;8.15;;
77304;SDS011;66364;52.622;7.746;2023-03-01T05:45:00;9.35;;;8.45;;
77304;SDS011;66364;52.622;7.746;2023-03-01T05:47:16;8.87;;;7.47;;
77304;SDS011;66364;52.622;7.746;2023-03-01T05:51:38;11.00;;;8.55;;
77304;SDS011;66364;52.622;7.746;2023-03-01T05:53:38;9.50;;;8.40;;
77304;SDS011;66364;52.622;7.746;2023-03-01T05:55:39;8.03;;;7.30;;
77304;SDS011;66364;52.622;7.746;2023-03-01T05:57:40;9.58;;;8.55;;
77304;SDS011;66364;52.622;7.746;2023-03-01T06:02:01;10.98;;;9.50;;
77304;SDS011;66364;52.622;7.746;2023-03-01T06:04:03;9.03;;;8.13;;
77304;SDS011;66364;52.622;7.746;2023-03-01T06:06:04;10.35;;;9.33;;
77304;SDS011;66364;52.622;7.746;2023-03-01T06:08:05;15.10;;;9.40;;
77304;SDS011;66364;52.622;7.746;2023-03-01T06:10:07;19.40;;;11.03;;
77304;SDS011;66364;52.622;7.746;2023-03-01T06:12:09;19.57;;;10.95;;
77304;SDS011;66364;52.622;7.746;2023-03-01T06:14:09;15.17;;;10.67;;
77304;SDS011;66364;52.622;7.746;2023-03-01T06:16:10;18.50;;;10.27;;
77304;SDS011;66364;52.622;7.746;2023-03-01T06:18:13;11.05;;;8.63;;
77304;SDS011;66364;52.622;7.746;2023-03-01T06:20:18;12.30;;;9.75;;
77304;SDS011;66364;52.622;7.746;2023-03-01T06:24:42;13.58;;;8.78;;
77304;SDS011;66364;52.622;7.746;2023-03-01T06:26:42;13.53;;;9.73;;
77304;SDS011;66364;52.622;7.746;2023-03-01T06:28:52;11.50;;;8.87;;
77304;SDS011;66364;52.622;7.746;2023-03-01T06:30:53;12.85;;;8.63;;
77304;SDS011;66364;52.622;7.746;2023-03-01T06:32:57;11.33;;;9.00;;
77304;SDS011;66364;52.622;7.746;2023-03-01T06:34:57;9.70;;;8.78;;
77304;SDS011;66364;52.622;7.746;2023-03-01T06:36:58;9.20;;;8.30;;
77304;SDS011;66364;52.622;7.746;2023-03-01T06:38:59;11.17;;;8.77;;
77304;SDS011;66364;52.622;7.746;2023-03-01T06:41:00;10.50;;;7.67;;
77304;SDS011;66364;52.622;7.746;2023-03-01T06:43:00;8.97;;;8.07;;
77304;SDS011;66364;52.622;7.746;2023-03-01T06:45:01;12.53;;;8.80;;
77304;SDS011;66364;52.622;7.746;2023-03-01T06:47:06;11.83;;;9.50;;
77304;SDS011;66364;52.622;7.746;2023-03-01T06:49:06;11.00;;;9.43;;
77304;SDS011;66364;52.622;7.746;2023-03-01T06:51:07;11.70;;;9.40;;
77304;SDS011;66364;52.622;7.746;2023-03-01T06:53:11;11.17;;;9.80;;
77304;SDS011;66364;52.622;7.746;2023-03-01T06:55:12;20.32;;;13.10;;
77304;SDS011;66364;52.622;7.746;2023-03-01T06:57:13;18.67;;;13.80;;
77304;SDS011;66364;52.622;7.746;2023-03-01T06:59:14;43.57;;;28.20;;
77304;SDS011;66364;52.622;7.746;2023-03-01T07:01:15;39.60;;;30.27;;
77304;SDS011;66364;52.622;7.746;2023-03-01T07:03:16;41.57;;;25.77;;
77304;SDS011;66364;52.622;7.746;2023-03-01T07:05:16;30.03;;;20.00;;
77304;SDS011;66364;52.622;7.746;2023-03-01T07:07:18;24.67;;;19.40;;
77304;SDS011;66364;52.622;7.746;2023-03-01T07:09:18;30.33;;;25.90;;
77304;SDS011;66364;52.622;7.746;2023-03-01T07:11:19;27.53;;;20.27;;
77304;SDS011;66364;52.622;7.746;2023-03-01T07:13:20;24.20;;;20.00;;
77304;SDS011;66364;52.622;7.746;2023-03-01T07:15:20;18.23;;;16.23;;
77304;SDS011;66364;52.622;7.746;2023-03-01T07:17:21;21.47;;;15.23;;
77304;SDS011;66364;52.622;7.746;2023-03-01T07:19:22;19.77;;;14.23;;
77304;SDS011;66364;52.622;7.746;2023-03-01T07:21:25;22.25;;;15.90;;
77304;SDS011;66364;52.622;7.746;2023-03-01T07:23:26;17.65;;;14.90;;
77304;SDS011;66364;52.622;7.746;2023-03-01T07:25:26;16.67;;;13.97;;
77304;SDS011;66364;52.622;7.746;2023-03-01T07:27:36;14.83;;;13.53;;
77304;SDS011;66364;52.622;7.746;2023-03-01T07:29:37;19.05;;;14.23;;
77304;SDS011;66364;52.622;7.746;2023-03-01T07:31:38;15.30;;;13.67;;
77304;SDS011;66364;52.622;7.746;2023-03-01T07:33:38;23.53;;;17.57;;
77304;SDS011;66364;52.622;7.746;2023-03-01T07:35:39;20.50;;;17.27;;
77304;SDS011;66364;52.622;7.746;2023-03-01T07:37:40;27.87;;;22.50;;
77304;SDS011;66364;52.622;7.746;2023-03-01T07:39:40;30.10;;;21.63;;
77304;SDS011;66364;52.622;7.746;2023-03-01T07:41:41;25.50;;;20.03;;
77304;SDS011;66364;52.622;7.746;2023-03-01T07:43:42;25.00;;;21.10;;
77304;SDS011;66364;52.622;7.746;2023-03-01T07:45:43;28.07;;;22.07;;
77304;SDS011;66364;52.622;7.746;2023-03-01T07:47:44;25.55;;;22.22;;
77304;SDS011;66364;52.622;7.746;2023-03-01T07:49:50;23.50;;;21.10;;
77304;SDS011;66364;52.622;7.746;2023-03-01T07:51:51;23.52;;;17.60;;
77304;SDS011;66364;52.622;7.746;2023-03-01T07:53:51;22.53;;;18.60;;
77304;SDS011;66364;52.622;7.746;2023-03-01T07:56:05;22.93;;;18.17;;
77304;SDS011;66364;52.622;7.746;2023-03-01T07:58:11;17.48;;;15.68;;
77304;SDS011;66364;52.622;7.746;2023-03-01T08:00:11;16.83;;;14.03;;
77304;SDS011;66364;52.622;7.746;2023-03-01T08:02:41;15.55;;;14.07;;
77304;SDS011;66364;52.622;7.746;2023-03-01T08:04:41;15.97;;;14.37;;
77304;SDS011;66364;52.622;7.746;2023-03-01T08:06:42;13.80;;;12.43;;
77304;SDS011;66364;52.622;7.746;2023-03-01T08:08:43;16.57;;;14.83;;
77304;SDS011;66364;52.622;7.746;2023-03-01T08:10:44;15.90;;;14.18;;
77304;SDS011;66364;52.622;7.746;2023-03-01T08:12:45;13.30;;;12.03;;
77304;SDS011;66364;52.622;7.746;2023-03-01T08:14:45;12.97;;;11.60;;
77304;SDS011;66364;52.622;7.746;2023-03-01T08:16:48;17.00;;;12.67;;
77304;SDS011;66364;52.622;7.746;2023-03-01T08:18:49;14.35;;;11.80;;
77304;SDS011;66364;52.622;7.746;2023-03-01T08:20:50;12.97;;;11.57;;
77304;SDS011;66364;52.622;7.746;2023-03-01T08:22:51;12.10;;;11.00;;
77304;SDS011;66364;52.622;7.746;2023-03-01T08:24:52;12.20;;;10.97;;
77304;SDS011;66364;52.622;7.746;2023-03-01T08:26:52;11.73;;;10.40;;
77304;SDS011;66364;52.622;7.746;2023-03-01T08:28:53;11.60;;;10.40;;
77304;SDS011;66364;52.622;7.746;2023-03-01T08:30:54;10.53;;;9.53;;
77304;SDS011;66364;52.622;7.746;2023-03-01T08:32:54;10.87;;;9.87;;
77304;SDS011;66364;52.622;7.746;2023-03-01T08:34:55;11.67;;;10.60;;
77304;SDS011;66364;52.622;7.746;2023-03-01T08:36:56;12.77;;;10.97;;
77304;SDS011;66364;52.622;7.746;2023-03-01T08:38:56;11.67;;;10.57;;
77304;SDS011;66364;52.622;7.746;2023-03-01T08:41:00;11.67;;;10.50;;
77304;SDS011;66364;52.622;7.746;2023-03-01T08:43:02;10.38;;;9.33;;
77304;SDS011;66364;52.622;7.746;2023-03-01T08:45:03;12.77;;;10.10;;
77304;SDS011;66364;52.622;7.746;2023-03-01T08:47:10;10.48;;;9.30;;
77304;SDS011;66364;52.622;7.746;2023-03-01T08:49:12;9.38;;;8.43;;
77304;SDS011;66364;52.622;7.746;2023-03-01T08:51:18;11.65;;;10.35;;
77304;SDS011;66364;52.622;7.746;2023-03-01T08:53:19;14.25;;;8.15;;
77304;SDS011;66364;52.622;7.746;2023-03-01T08:55:20;10.40;;;9.40;;
77304;SDS011;66364;52.622;7.746;2023-03-01T08:57:20;9.80;;;8.33;;
77304;SDS011;66364;52.622;7.746;2023-03-01T08:59:21;11.20;;;9.63;;
77304;SDS011;66364;52.622;7.746;2023-03-01T09:01:22;9.33;;;8.03;;
77304;SDS011;66364;52.622;7.746;2023-03-01T09:03:23;9.40;;;8.30;;
77304;SDS011;66364;52.622;7.746;2023-03-01T09:05:24;8.95;;;8.15;;
77304;SDS011;66364;52.622;7.746;2023-03-01T09:07:26;10.67;;;8.53;;
77304;SDS011;66364;52.622;7.746;2023-03-01T09:09:27;11.70;;;8.60;;
77304;SDS011;66364;52.622;7.746;2023-03-01T09:11:27;8.90;;;8.00;;
77304;SDS011;66364;52.622;7.746;2023-03-01T09:13:28;9.20;;;8.10;;
77304;SDS011;66364;52.622;7.746;2023-03-01T09:15:32;8.13;;;7.40;;
77304;SDS011;66364;52.622;7.746;2023-03-01T09:17:33;9.18;;;8.38;;
77304;SDS011;66364;52.622;7.746;2023-03-01T09:19:34;8.90;;;8.10;;
77304;SDS011;66364;52.622;7.746;2023-03-01T09:21:35;8.33;;;7.63;;
77304;SDS011;66364;52.622;7.746;2023-03-01T09:23:36;9.20;;;8.33;;
77304;SDS011;66364;52.622;7.746;2023-03-01T09:25:38;8.15;;;7.33;;
77304;SDS011;66364;52.622;7.746;2023-03-01T09:27:39;8.43;;;7.63;;
77304;SDS011;66364;52.622;7.746;2023-03-01T09:29:39;8.30;;;7.60;;
77304;SDS011;66364;52.622;7.746;2023-03-01T09:31:40;8.40;;;7.60;;
77304;SDS011;66364;52.622;7.746;2023-03-01T09:33:41;8.40;;;7.47;;
77304;SDS011;66364;52.622;7.746;2023-03-01T09:35:43;8.33;;;7.40;;
77304;SDS011;66364;52.622;7.746;2023-03-01T09:37:43;7.57;;;6.97;;
77304;SDS011;66364;52.622;7.746;2023-03-01T09:39:44;7.50;;;6.90;;
77304;SDS011;66364;52.622;7.746;2023-03-01T09:44:01;7.72;;;7.03;;
77304;SDS011;66364;52.622;7.746;2023-03-01T09:46:01;7.72;;;6.95;;
77304;SDS011;66364;52.622;7.746;2023-03-01T09:48:10;8.18;;;7.37;;
77304;SDS011;66364;52.622;7.746;2023-03-01T09:50:18;12.78;;;9.33;;
77304;SDS011;66364;52.622;7.746;2023-03-01T09:54:41;6.40;;;5.83;;
77304;SDS011;66364;52.622;7.746;2023-03-01T09:59:25;9.40;;;6.90;;
77304;SDS011;66364;52.622;7.746;2023-03-01T10:03:42;8.73;;;6.83;;
77304;SDS011;66364;52.622;7.746;2023-03-01T10:05:46;6.62;;;5.92;;
77304;SDS011;66364;52.622;7.746;2023-03-01T10:09:55;6.80;;;6.20;;
77304;SDS011;66364;52.622;7.746;2023-03-01T10:11:55;5.13;;;4.73;;
77304;SDS011;66364;52.622;7.746;2023-03-01T10:13:58;7.62;;;6.90;;
77304;SDS011;66364;52.622;7.746;2023-03-01T10:16:03;6.85;;;6.17;;
77304;SDS011;66364;52.622;7.746;2023-03-01T10:18:22;5.05;;;4.65;;
77304;SDS011;66364;52.622;7.746;2023-03-01T10:20:28;5.40;;;4.90;;
77304;SDS011;66364;52.622;7.746;2023-03-01T10:22:36;5.05;;;4.53;;
77304;SDS011;66364;52.622;7.746;2023-03-01T10:24:37;5.27;;;4.80;;
77304;SDS011;66364;52.622;7.746;2023-03-01T10:26:48;7.65;;;5.10;;
77304;SDS011;66364;52.622;7.746;2023-03-01T10:29:04;5.95;;;4.90;;
77304;SDS011;66364;52.622;7.746;2023-03-01T10:31:08;4.60;;;4.20;;
77304;SDS011;66364;52.622;7.746;2023-03-01T10:33:32;5.42;;;4.47;;
77304;SDS011;66364;52.622;7.746;2023-03-01T10:35:29;5.17;;;3.87;;
77304;SDS011;66364;52.622;7.746;2023-03-01T10:37:28;6.17;;;5.58;;
77304;SDS011;66364;52.622;7.746;2023-03-01T10:39:29;5.47;;;4.93;;
77304;SDS011;66364;52.622;7.746;2023-03-01T10:41:30;6.70;;;4.30;;
77304;SDS011;66364;52.622;7.746;2023-03-01T10:43:44;4.93;;;4.50;;
77304;SDS011;66364;52.622;7.746;2023-03-01T10:45:47;5.35;;;4.70;;
77304;SDS011;66364;52.622;7.746;2023-03-01T10:47:48;6.12;;;4.42;;
77304;SDS011;66364;52.622;7.746;2023-03-01T10:50:08;5.62;;;4.65;;
77304;SDS011;66364;52.622;7.746;2023-03-01T10:52:28;5.53;;;4.50;;
77304;SDS011;66364;52.622;7.746;2023-03-01T10:54:25;4.60;;;4.20;;
77304;SDS011;66364;52.622;7.746;2023-03-01T10:56:45;5.08;;;4.28;;
77304;SDS011;66364;52.622;7.746;2023-03-01T10:58:38;4.53;;;4.12;;
77304;SDS011;66364;52.622;7.746;2023-03-01T11:01:00;4.35;;;3.95;;
77304;SDS011;66364;52.622;7.746;2023-03-01T11:07:20;5.42;;;4.17;;
77304;SDS011;66364;52.622;7.746;2023-03-01T11:09:22;4.13;;;3.73;;
77304;SDS011;66364;52.622;7.746;2023-03-01T11:11:28;4.03;;;3.70;;
77304;SDS011;66364;52.622;7.746;2023-03-01T11:13:31;6.87;;;4.65;;
77304;SDS011;66364;52.622;7.746;2023-03-01T11:15:32;5.60;;;4.00;;
77304;SDS011;66364;52.622;7.746;2023-03-01T11:17:33;4.80;;;4.40;;
77304;SDS011;66364;52.622;7.746;2023-03-01T11:19:40;7.90;;;4.65;;
77304;SDS011;66364;52.622;7.746;2023-03-01T11:23:45;6.90;;;3.83;;
77304;SDS011;66364;52.622;7.746;2023-03-01T11:25:56;7.83;;;5.42;;
77304;SDS011;66364;52.622;7.746;2023-03-01T11:28:07;4.87;;;4.10;;
77304;SDS011;66364;52.622;7.746;2023-03-01T11:32:35;6.85;;;4.00;;
77304;SDS011;66364;52.622;7.746;2023-03-01T11:34:43;3.98;;;3.58;;
77304;SDS011;66364;52.622;7.746;2023-03-01T11:36:49;5.70;;;4.08;;
77304;SDS011;66364;52.622;7.746;2023-03-01T11:39:02;5.10;;;4.60;;
77304;SDS011;66364;52.622;7.746;2023-03-01T11:41:15;4.80;;;4.30;;
77304;SDS011;66364;52.622;7.746;2023-03-01T11:53:23;7.47;;;5.60;;
77304;SDS011;66364;52.622;7.746;2023-03-01T12:04:37;6.90;;;6.20;;
77304;SDS011;66364;52.622;7.746;2023-03-01T12:06:56;6.05;;;5.05;;
77304;SDS011;66364;52.622;7.746;2023-03-01T12:21:05;4.53;;;4.12;;
77304;SDS011;66364;52.622;7.746;2023-03-01T12:38:40;4.97;;;4.47;;
77304;SDS011;66364;52.622;7.746;2023-03-01T12:43:26;4.30;;;4.00;;
77304;SDS011;66364;52.622;7.746;2023-03-01T12:50:40;6.08;;;4.35;;
77304;SDS011;66364;52.622;7.746;2023-03-01T12:52:44;4.60;;;4.20;;
77304;SDS011;66364;52.622;7.746;2023-03-01T12:54:51;5.87;;;4.65;;
77304;SDS011;66364;52.622;7.746;2023-03-01T12:56:54;4.70;;;4.20;;
77304;SDS011;66364;52.622;7.746;2023-03-01T13:10:33;7.30;;;5.75;;
77304;SDS011;66364;52.622;7.746;2023-03-01T13:15:13;7.28;;;5.12;;
77304;SDS011;66364;52.622;7.746;2023-03-01T13:17:29;7.75;;;6.00;;
77304;SDS011;66364;52.622;7.746;2023-03-01T13:19:32;8.68;;;5.33;;
77304;SDS011;66364;52.622;7.746;2023-03-01T13:21:32;8.20;;;6.03;;
77304;SDS011;66364;52.622;7.746;2023-03-01T13:23:38;6.03;;;5.00;;
77304;SDS011;66364;52.622;7.746;2023-03-01T13:28:35;6.42;;;5.00;;
77304;SDS011;66364;52.622;7.746;2023-03-01T13:32:38;6.50;;;5.90;;
77304;SDS011;66364;52.622;7.746;2023-03-01T13:34:42;5.70;;;4.90;;
77304;SDS011;66364;52.622;7.746;2023-03-01T13:36:45;5.55;;;5.05;;
77304;SDS011;66364;52.622;7.746;2023-03-01T13:38:48;5.65;;;5.10;;
77304;SDS011;66364;52.622;7.746;2023-03-01T13:41:00;6.42;;;5.80;;
77304;SDS011;66364;52.622;7.746;2023-03-01T13:43:22;6.05;;;5.25;;
77304;SDS011;66364;52.622;7.746;2023-03-01T13:45:33;6.20;;;5.60;;
77304;SDS011;66364;52.622;7.746;2023-03-01T13:47:32;6.60;;;5.92;;
77304;SDS011;66364;52.622;7.746;2023-03-01T13:49:53;6.55;;;5.95;;
77304;SDS011;66364;52.622;7.746;2023-03-01T13:51:57;7.53;;;5.70;;
77304;SDS011;66364;52.622;7.746;2023-03-01T13:53:57;7.35;;;6.20;;
77304;SDS011;66364;52.622;7.746;2023-03-01T13:56:13;7.20;;;5.92;;
77304;SDS011;66364;52.622;7.746;2023-03-01T14:00:36;6.80;;;6.22;;
77304;SDS011;66364;52.622;7.746;2023-03-01T14:02:39;8.40;;;6.70;;
77304;SDS011;66364;52.622;7.746;2023-03-01T14:04:39;8.03;;;7.03;;
77304;SDS011;66364;52.622;7.746;2023-03-01T14:06:40;10.43;;;7.53;;
77304;SDS011;66364;52.622;7.746;2023-03-01T14:08:41;7.13;;;6.53;;
77304;SDS011;66364;52.622;7.746;2023-03-01T14:15:32;8.13;;;7.03;;
77304;SDS011;66364;52.622;7.746;2023-03-01T14:19:40;8.68;;;7.78;;
77304;SDS011;66364;52.622;7.746;2023-03-01T14:21:43;7.78;;;7.03;;
77304;SDS011;66364;52.622;7.746;2023-03-01T14:23:45;10.58;;;8.78;;
77304;SDS011;66364;52.622;7.746;2023-03-01T14:25:47;8.38;;;7.58;;
77304;SDS011;66364;52.622;7.746;2023-03-01T14:27:57;8.18;;;7.45;;
77304;SDS011;66364;52.622;7.746;2023-03-01T14:30:02;9.45;;;7.25;;